createdAt,value
2024-01-05T00:00:05.109Z,96.00
2024-01-05T00:02:34.078Z,95.70
2024-01-05T00:05:00.800Z,95.70
2024-01-05T00:07:27.623Z,95.70
2024-01-05T00:09:54.339Z,95.70
2024-01-05T00:12:21.187Z,95.70
2024-01-05T00:14:48.051Z,95.60
2024-01-05T00:17:14.910Z,95.60
2024-01-05T00:19:41.723Z,95.70
2024-01-05T00:22:08.736Z,95.70
2024-01-05T00:24:36.845Z,95.90
2024-01-05T00:27:04.507Z,96.50
2024-01-05T00:29:31.310Z,96.20
2024-01-05T00:31:58.079Z,96.10
2024-01-05T00:34:25.000Z,96.10
2024-01-05T00:36:52.016Z,96.00
2024-01-05T00:39:18.834Z,96.00
2024-01-05T00:41:47.352Z,96.00
2024-01-05T00:44:14.360Z,95.90
2024-01-05T00:46:41.330Z,95.90
2024-01-05T00:49:08.311Z,95.90
2024-01-05T00:51:35.277Z,95.90
2024-01-05T00:54:02.215Z,95.90
2024-01-05T00:56:29.632Z,95.90
2024-01-05T00:58:56.354Z,95.90
2024-01-05T01:01:23.348Z,95.90
2024-01-05T01:03:50.313Z,95.90
2024-01-05T01:06:17.263Z,95.90
2024-01-05T01:08:43.990Z,95.80
2024-01-05T01:11:17.305Z,95.80
2024-01-05T01:13:44.924Z,95.80
2024-01-05T01:16:12.573Z,95.80
2024-01-05T01:18:39.872Z,95.90
2024-01-05T01:21:06.977Z,95.90
2024-01-05T01:23:36.605Z,95.90
2024-01-05T01:26:03.348Z,95.90
2024-01-05T01:28:30.747Z,95.90
2024-01-05T01:30:57.893Z,95.90
2024-01-05T01:33:25.050Z,95.90
2024-01-05T01:35:51.881Z,96.00
2024-01-05T01:38:18.719Z,96.00
2024-01-05T01:40:52.084Z,96.00
2024-01-05T01:43:22.991Z,96.00
2024-01-05T01:45:49.818Z,96.00
2024-01-05T01:48:18.340Z,96.00
2024-01-05T01:50:45.615Z,96.00
2024-01-05T01:53:14.503Z,96.00
2024-01-05T01:55:44.686Z,96.00
2024-01-05T01:58:11.950Z,96.00
2024-01-05T02:00:39.151Z,96.00
2024-01-05T02:03:06.872Z,96.00
2024-01-05T02:05:33.844Z,96.00
2024-01-05T02:08:00.954Z,96.00
2024-01-05T02:10:27.943Z,96.00
2024-01-05T02:12:54.654Z,96.00
2024-01-05T02:15:21.476Z,96.00
2024-01-05T02:17:48.391Z,96.00
2024-01-05T02:20:15.267Z,96.40
2024-01-05T02:22:44.607Z,95.90
2024-01-05T02:25:11.873Z,96.00
2024-01-05T02:27:38.788Z,96.00
2024-01-05T02:30:05.976Z,96.00
2024-01-05T02:32:32.771Z,96.00
2024-01-05T02:34:59.732Z,96.00
2024-01-05T02:37:27.837Z,96.00
2024-01-05T02:39:54.684Z,96.00
2024-01-05T02:42:21.382Z,96.00
2024-01-05T02:44:48.283Z,96.00
2024-01-05T02:47:15.038Z,95.90
2024-01-05T02:49:41.982Z,96.00
2024-01-05T02:52:08.796Z,96.00
2024-01-05T02:54:35.651Z,95.90
2024-01-05T02:57:02.434Z,95.90
2024-01-05T02:59:29.353Z,95.90
2024-01-05T03:01:56.455Z,95.90
2024-01-05T03:04:23.220Z,95.90
2024-01-05T03:06:50.133Z,95.80
2024-01-05T03:09:16.995Z,95.80
2024-01-05T03:11:43.670Z,95.80
2024-01-05T03:14:10.439Z,95.70
2024-01-05T03:16:37.276Z,95.70
2024-01-05T03:19:04.123Z,95.80
2024-01-05T03:21:30.902Z,95.80
2024-01-05T03:23:57.778Z,95.80
2024-01-05T03:26:24.517Z,95.80
2024-01-05T03:28:51.341Z,95.80
2024-01-05T03:31:18.121Z,95.80
2024-01-05T03:33:46.190Z,95.70
2024-01-05T03:36:13.567Z,95.70
2024-01-05T03:38:40.507Z,95.70
2024-01-05T03:41:07.455Z,95.70
2024-01-05T03:43:34.290Z,95.60
2024-01-05T03:46:01.003Z,95.60
2024-01-05T03:48:28.085Z,95.60
2024-01-05T03:50:55.023Z,95.60
2024-01-05T03:53:21.844Z,95.50
2024-01-05T03:55:48.574Z,95.50
2024-01-05T03:58:16.074Z,95.50
2024-01-05T04:00:42.989Z,95.50
2024-01-05T04:03:09.946Z,95.50
2024-01-05T04:05:37.033Z,95.50
2024-01-05T04:08:04.340Z,95.50
2024-01-05T04:10:31.256Z,95.50
2024-01-05T04:12:57.943Z,95.50
2024-01-05T04:15:24.751Z,95.50
2024-01-05T04:17:51.690Z,95.50
2024-01-05T04:20:18.413Z,95.50
2024-01-05T04:22:45.258Z,95.50
2024-01-05T04:25:12.280Z,95.50
2024-01-05T04:27:40.253Z,95.40
2024-01-05T04:30:07.338Z,95.50
2024-01-05T04:32:34.220Z,95.40
2024-01-05T04:35:00.913Z,95.40
2024-01-05T04:37:27.616Z,95.40
2024-01-05T04:39:54.381Z,95.40
2024-01-05T04:42:21.254Z,95.30
2024-01-05T04:44:48.095Z,95.30
2024-01-05T04:47:14.841Z,95.30
2024-01-05T04:49:41.555Z,95.30
2024-01-05T04:52:08.295Z,95.30
2024-01-05T04:54:35.029Z,95.30
2024-01-05T04:57:02.864Z,95.30
2024-01-05T04:59:29.767Z,95.30
2024-01-05T05:01:56.611Z,95.30
2024-01-05T05:04:23.363Z,95.30
2024-01-05T05:06:50.217Z,95.30
2024-01-05T05:09:17.329Z,95.30
2024-01-05T05:11:44.441Z,95.30
2024-01-05T05:14:11.511Z,95.30
2024-01-05T05:16:38.343Z,95.30
2024-01-05T05:19:05.450Z,95.30
2024-01-05T05:21:32.759Z,95.30
2024-01-05T05:23:59.572Z,95.30
2024-01-05T05:26:26.400Z,95.40
2024-01-05T05:28:53.127Z,95.40
2024-01-05T05:31:20.463Z,95.40
2024-01-05T05:33:47.356Z,95.40
2024-01-05T05:36:14.328Z,95.40
2024-01-05T05:38:41.028Z,95.40
2024-01-05T05:41:07.806Z,95.50
2024-01-05T05:43:34.771Z,95.40
2024-01-05T05:46:01.526Z,95.50
2024-01-05T05:48:28.779Z,95.50
2024-01-05T05:50:55.586Z,95.50
2024-01-05T05:53:22.323Z,95.60
2024-01-05T05:55:50.106Z,95.60
2024-01-05T05:58:16.807Z,95.60
2024-01-05T06:00:43.803Z,95.60
2024-01-05T06:03:13.498Z,95.60
2024-01-05T06:05:41.307Z,95.70
2024-01-05T06:08:09.289Z,95.70
2024-01-05T06:10:36.123Z,95.70
2024-01-05T06:13:03.943Z,95.70
2024-01-05T06:15:30.813Z,95.80
2024-01-05T06:17:57.731Z,95.80
2024-01-05T06:20:24.577Z,95.80
2024-01-05T06:22:51.335Z,95.80
2024-01-05T06:25:18.557Z,95.80
2024-01-05T06:27:45.309Z,95.90
2024-01-05T06:30:12.460Z,95.90
2024-01-05T06:32:39.410Z,95.90
2024-01-05T06:35:06.846Z,95.90
2024-01-05T06:37:33.725Z,95.90
2024-01-05T06:40:00.765Z,96.00
2024-01-05T06:42:27.533Z,95.90
2024-01-05T06:44:54.499Z,96.00
2024-01-05T06:47:21.226Z,96.00
2024-01-05T06:49:48.154Z,96.00
2024-01-05T06:52:14.946Z,96.00
2024-01-05T06:54:41.869Z,96.00
2024-01-05T06:57:08.735Z,96.00
2024-01-05T06:59:37.693Z,96.00
2024-01-05T07:02:05.072Z,96.10
2024-01-05T07:04:31.926Z,96.10
2024-01-05T07:06:58.684Z,96.10
2024-01-05T07:09:26.165Z,96.10
2024-01-05T07:11:53.603Z,96.10
2024-01-05T07:14:20.343Z,96.20
2024-01-05T07:16:48.117Z,96.20
2024-01-05T07:19:15.185Z,96.20
2024-01-05T07:21:42.441Z,96.10
2024-01-05T07:24:09.807Z,96.10
2024-01-05T07:26:36.559Z,96.10
2024-01-05T07:29:03.507Z,96.10
2024-01-05T07:31:30.705Z,96.10
2024-01-05T07:34:00.094Z,96.10
2024-01-05T07:36:28.564Z,96.10
2024-01-05T07:39:00.134Z,96.10
2024-01-05T07:41:31.628Z,96.20
2024-01-05T07:43:58.378Z,96.20
2024-01-05T07:46:28.177Z,96.20
2024-01-05T07:48:56.180Z,96.20
2024-01-05T07:51:23.493Z,96.20
2024-01-05T07:53:50.875Z,96.20
2024-01-05T07:56:18.465Z,96.20
2024-01-05T07:58:46.213Z,96.20
2024-01-05T08:01:17.442Z,96.30
2024-01-05T08:03:45.731Z,96.30
2024-01-05T08:06:17.081Z,96.30
2024-01-05T08:08:48.094Z,96.30
2024-01-05T08:11:15.768Z,96.30
2024-01-05T08:13:45.782Z,96.30
2024-01-05T08:16:13.053Z,96.30
2024-01-05T08:18:40.659Z,96.30
2024-01-05T08:21:07.805Z,96.30
2024-01-05T08:23:34.897Z,96.30
2024-01-05T08:26:01.880Z,96.30
2024-01-05T08:28:31.365Z,96.40
2024-01-05T08:30:58.567Z,96.40
2024-01-05T08:33:25.483Z,96.50
2024-01-05T08:35:52.544Z,96.50
2024-01-05T08:38:19.331Z,96.50
2024-01-05T08:40:46.596Z,96.50
2024-01-05T08:43:13.488Z,96.50
2024-01-05T08:45:40.597Z,96.60
2024-01-05T08:48:07.810Z,96.60
2024-01-05T08:50:37.288Z,96.60
2024-01-05T08:53:11.532Z,96.70
2024-01-05T08:55:42.107Z,96.70
2024-01-05T08:58:11.565Z,96.70
2024-01-05T09:00:38.675Z,96.70
2024-01-05T09:03:06.055Z,96.70
2024-01-05T09:05:33.331Z,96.70
2024-01-05T09:08:00.836Z,96.70
2024-01-05T09:10:28.899Z,96.80
2024-01-05T09:12:58.099Z,96.80
2024-01-05T09:15:25.537Z,96.80
2024-01-05T09:17:52.896Z,96.80
2024-01-05T09:20:20.115Z,96.80
2024-01-05T09:22:47.618Z,96.80
2024-01-05T09:25:14.657Z,96.90
2024-01-05T09:27:41.770Z,96.90
2024-01-05T09:30:09.312Z,96.90
2024-01-05T09:32:36.472Z,96.90
2024-01-05T09:35:03.948Z,96.90
2024-01-05T09:37:30.852Z,96.90
2024-01-05T09:39:58.130Z,96.90
2024-01-05T09:42:25.308Z,96.90
2024-01-05T09:44:54.037Z,96.90
2024-01-05T09:47:21.168Z,96.90
2024-01-05T09:49:50.994Z,96.90
2024-01-05T09:52:21.093Z,97.00
2024-01-05T09:54:48.478Z,97.00
2024-01-05T09:57:16.876Z,97.00
2024-01-05T09:59:46.124Z,97.00
2024-01-05T10:02:16.223Z,97.00
2024-01-05T10:04:43.374Z,97.10
2024-01-05T10:07:10.264Z,97.10
2024-01-05T10:09:49.345Z,97.10
2024-01-05T10:12:16.720Z,97.10
2024-01-05T10:14:43.594Z,97.20
2024-01-05T10:17:11.230Z,97.10
2024-01-05T10:19:38.391Z,97.20
2024-01-05T10:22:12.028Z,97.20
2024-01-05T10:24:39.815Z,97.10
2024-01-05T10:27:08.004Z,97.10
2024-01-05T10:29:38.715Z,97.10
2024-01-05T10:32:15.889Z,97.10
2024-01-05T10:34:45.379Z,97.00
2024-01-05T10:37:13.208Z,97.00
2024-01-05T10:39:50.024Z,97.10
2024-01-05T10:42:25.996Z,97.10
2024-01-05T10:44:54.200Z,97.10
2024-01-05T10:47:22.167Z,97.10
2024-01-05T10:49:51.166Z,97.30
2024-01-05T10:52:24.038Z,97.10
2024-01-05T10:54:53.815Z,97.10
2024-01-05T10:57:21.674Z,97.20
2024-01-05T10:59:52.322Z,97.20
2024-01-05T11:02:23.743Z,97.20
2024-01-05T11:05:26.197Z,97.20
2024-01-05T11:07:53.758Z,97.20
2024-01-05T11:10:20.833Z,97.30
2024-01-05T11:12:57.243Z,97.30
2024-01-05T11:15:30.440Z,97.20
2024-01-05T11:18:08.791Z,97.20
2024-01-05T11:20:54.894Z,97.20
2024-01-05T11:23:25.295Z,97.30
2024-01-05T11:25:54.548Z,97.30
2024-01-05T11:28:39.691Z,97.30
2024-01-05T11:31:06.681Z,97.30
2024-01-05T11:33:43.698Z,97.30
2024-01-05T11:36:10.718Z,97.30
2024-01-05T11:38:42.035Z,97.30
2024-01-05T11:41:16.142Z,97.20
2024-01-05T11:43:43.039Z,97.20
2024-01-05T11:46:09.974Z,97.20
2024-01-05T11:48:38.808Z,97.20
2024-01-05T11:51:09.978Z,97.20
2024-01-05T11:53:37.834Z,97.10
2024-01-05T11:56:09.499Z,97.10
2024-01-05T11:58:38.111Z,97.00
2024-01-05T12:01:07.485Z,97.10
2024-01-05T12:03:35.238Z,97.00
2024-01-05T12:06:03.100Z,97.00
2024-01-05T12:08:30.991Z,97.00
2024-01-05T12:10:58.881Z,97.00
2024-01-05T12:13:28.128Z,97.00
2024-01-05T12:16:01.199Z,97.00
2024-01-05T12:18:37.586Z,97.00
2024-01-05T12:21:07.335Z,97.00
2024-01-05T12:23:36.235Z,97.00
2024-01-05T12:26:04.942Z,96.90
2024-01-05T12:28:33.233Z,97.00
2024-01-05T12:31:00.606Z,96.90
2024-01-05T12:33:29.450Z,96.90
2024-01-05T12:35:57.060Z,96.90
2024-01-05T12:38:24.417Z,96.90
2024-01-05T12:40:52.298Z,96.90
2024-01-05T12:43:19.824Z,96.90
2024-01-05T12:45:50.174Z,96.90
2024-01-05T12:48:19.527Z,97.00
2024-01-05T12:50:46.577Z,97.00
2024-01-05T12:53:20.564Z,97.00
2024-01-05T12:55:48.614Z,97.00
2024-01-05T12:58:15.690Z,97.00
2024-01-05T13:00:44.697Z,96.90
2024-01-05T13:03:15.577Z,96.90
2024-01-05T13:05:43.664Z,96.90
2024-01-05T13:08:10.708Z,96.90
2024-01-05T13:10:40.856Z,96.90
2024-01-05T13:13:08.142Z,96.90
2024-01-05T13:15:35.708Z,96.90
2024-01-05T13:18:07.758Z,96.90
2024-01-05T13:20:37.770Z,96.90
2024-01-05T13:23:05.740Z,96.90
2024-01-05T13:25:35.476Z,96.90
2024-01-05T13:28:02.877Z,96.80
2024-01-05T13:30:29.978Z,96.80
2024-01-05T13:32:57.617Z,96.80
2024-01-05T13:35:24.780Z,96.80
2024-01-05T13:37:51.867Z,96.80
2024-01-05T13:40:18.834Z,96.80
2024-01-05T13:42:46.691Z,96.80
2024-01-05T13:45:14.386Z,96.80
2024-01-05T13:47:41.463Z,96.80
2024-01-05T13:50:08.724Z,96.70
2024-01-05T13:52:35.615Z,96.70
2024-01-05T13:55:02.863Z,96.70
2024-01-05T13:57:29.800Z,96.80
2024-01-05T13:59:56.937Z,96.80
2024-01-05T14:02:24.268Z,96.80
2024-01-05T14:04:51.379Z,96.70
2024-01-05T14:07:18.392Z,96.70
2024-01-05T14:09:45.667Z,96.70
2024-01-05T14:12:12.858Z,96.70
2024-01-05T14:14:40.215Z,96.70
2024-01-05T14:17:07.899Z,96.60
2024-01-05T14:19:35.151Z,96.60
2024-01-05T14:22:02.869Z,96.60
2024-01-05T14:24:33.059Z,96.60
2024-01-05T14:27:02.193Z,96.60
2024-01-05T14:29:32.737Z,96.60
2024-01-05T14:32:04.648Z,96.60
2024-01-05T14:34:42.644Z,96.50
2024-01-05T14:37:10.356Z,96.50
2024-01-05T14:39:40.849Z,96.50
2024-01-05T14:42:13.247Z,96.50
2024-01-05T14:44:40.750Z,96.50
2024-01-05T14:47:09.317Z,96.50
2024-01-05T14:49:41.772Z,96.40
2024-01-05T14:52:09.326Z,96.80
2024-01-05T14:54:36.635Z,96.40
2024-01-05T14:57:05.456Z,96.50
2024-01-05T14:59:36.306Z,96.50
2024-01-05T15:02:04.723Z,96.50
2024-01-05T15:04:35.151Z,96.40
2024-01-05T15:07:03.373Z,96.40
2024-01-05T15:09:34.523Z,96.40
2024-01-05T15:12:01.960Z,96.30
2024-01-05T15:14:30.757Z,96.20
2024-01-05T15:16:58.480Z,96.20
2024-01-05T15:19:25.712Z,96.10
2024-01-05T15:21:53.051Z,96.10
2024-01-05T15:24:20.746Z,96.10
2024-01-05T15:26:48.667Z,96.00
2024-01-05T15:29:16.500Z,96.00
2024-01-05T15:31:44.055Z,96.00
2024-01-05T15:34:11.287Z,96.00
2024-01-05T15:36:38.341Z,96.00
2024-01-05T15:39:07.208Z,96.00
2024-01-05T15:41:35.157Z,95.90
2024-01-05T15:44:02.941Z,95.90
2024-01-05T15:46:29.861Z,95.90
2024-01-05T15:48:57.123Z,95.90
2024-01-05T15:51:26.797Z,95.90
2024-01-05T15:53:56.708Z,95.90
2024-01-05T15:56:25.659Z,95.90
2024-01-05T15:58:52.464Z,95.90
2024-01-05T16:01:19.337Z,95.90
2024-01-05T16:03:46.541Z,95.90
2024-01-05T16:06:16.500Z,96.00
2024-01-05T16:08:47.879Z,95.90
2024-01-05T16:11:15.554Z,95.90
2024-01-05T16:13:43.314Z,95.90
2024-01-05T16:16:12.018Z,96.00
2024-01-05T16:18:39.000Z,95.90
2024-01-05T16:21:06.053Z,95.90
2024-01-05T16:23:32.916Z,95.90
2024-01-05T16:25:59.816Z,95.90
2024-01-05T16:28:26.870Z,95.90
2024-01-05T16:30:53.874Z,95.90
2024-01-05T16:33:20.840Z,95.90
2024-01-05T16:35:47.848Z,95.90
2024-01-05T16:38:14.680Z,95.90
2024-01-05T16:40:41.514Z,95.90
2024-01-05T16:43:08.275Z,96.00
2024-01-05T16:45:35.404Z,95.90
2024-01-05T16:48:02.227Z,95.90
2024-01-05T16:50:29.112Z,95.90
2024-01-05T16:52:55.846Z,96.00
2024-01-05T16:55:22.708Z,96.00
2024-01-05T16:57:49.575Z,95.90
2024-01-05T17:00:16.978Z,95.90
2024-01-05T17:02:43.844Z,95.90
2024-01-05T17:05:13.319Z,95.80
2024-01-05T17:07:40.218Z,95.90
2024-01-05T17:10:07.737Z,95.80
2024-01-05T17:12:34.788Z,95.90
2024-01-05T17:15:01.701Z,95.90
2024-01-05T17:17:31.377Z,95.90
2024-01-05T17:20:13.083Z,95.90
2024-01-05T17:22:45.054Z,95.90
2024-01-05T17:25:11.975Z,95.90
2024-01-05T17:27:39.139Z,95.80
2024-01-05T17:30:07.194Z,95.80
2024-01-05T17:32:34.740Z,95.80
2024-01-05T17:35:01.739Z,95.90
2024-01-05T17:37:28.834Z,95.80
2024-01-05T17:39:57.119Z,95.80
2024-01-05T17:42:23.968Z,95.90
2024-01-05T17:44:53.238Z,95.80
2024-01-05T17:47:20.601Z,95.80
2024-01-05T17:49:48.840Z,95.70
2024-01-05T17:52:17.897Z,95.70
2024-01-05T17:54:44.794Z,95.80
2024-01-05T17:57:11.808Z,95.80
2024-01-05T17:59:39.498Z,95.80
2024-01-05T18:02:06.528Z,95.80
2024-01-05T18:04:33.668Z,95.80
2024-01-05T18:07:00.833Z,95.80
2024-01-05T18:09:27.737Z,95.80
2024-01-05T18:11:54.754Z,95.80
2024-01-05T18:14:22.715Z,95.80
2024-01-05T18:16:55.661Z,95.80
2024-01-05T18:19:22.597Z,95.80
2024-01-05T18:21:49.396Z,95.80
2024-01-05T18:24:16.371Z,95.70
2024-01-05T18:26:43.185Z,95.70
2024-01-05T18:29:20.555Z,95.80
2024-01-05T18:31:53.207Z,95.70
2024-01-05T18:34:22.994Z,95.70
2024-01-05T18:36:50.384Z,95.70
2024-01-05T18:39:17.343Z,95.70
2024-01-05T18:41:47.246Z,95.70
2024-01-05T18:44:15.388Z,95.70
2024-01-05T18:46:42.802Z,95.70
2024-01-05T18:49:10.813Z,95.70
2024-01-05T18:51:38.269Z,95.60
2024-01-05T18:54:07.937Z,95.70
2024-01-05T18:56:34.991Z,95.60
2024-01-05T18:59:03.104Z,95.60
2024-01-05T19:01:30.860Z,95.60
2024-01-05T19:03:59.611Z,95.60
2024-01-05T19:06:27.319Z,95.70
2024-01-05T19:08:54.283Z,95.80
2024-01-05T19:11:23.772Z,95.80
2024-01-05T19:13:50.566Z,95.80
2024-01-05T19:16:18.200Z,95.80
2024-01-05T19:18:45.238Z,95.90
2024-01-05T19:21:14.297Z,95.90
2024-01-05T19:23:41.160Z,95.90
2024-01-05T19:26:09.205Z,95.80
2024-01-05T19:28:36.058Z,95.80
2024-01-05T19:31:05.440Z,95.70
2024-01-05T19:33:33.468Z,95.70
2024-01-05T19:36:01.436Z,95.70
2024-01-05T19:38:28.371Z,95.80
2024-01-05T19:40:55.374Z,95.80
2024-01-05T19:43:22.385Z,95.80
2024-01-05T19:45:49.411Z,95.80
2024-01-05T19:48:16.987Z,95.80
2024-01-05T19:50:45.122Z,95.70
2024-01-05T19:53:11.850Z,95.70
2024-01-05T19:55:38.672Z,95.70
2024-01-05T19:58:05.362Z,95.70
2024-01-05T20:00:32.310Z,95.70
2024-01-05T20:02:59.603Z,95.70
2024-01-05T20:05:26.942Z,95.60
2024-01-05T20:07:57.519Z,95.60
2024-01-05T20:10:25.417Z,95.60
2024-01-05T20:12:52.191Z,95.60
2024-01-05T20:15:19.183Z,95.60
2024-01-05T20:17:46.385Z,95.60
2024-01-05T20:20:13.214Z,95.50
2024-01-05T20:22:41.421Z,95.50
2024-01-05T20:25:09.576Z,95.60
2024-01-05T20:27:43.387Z,95.60
2024-01-05T20:30:13.051Z,95.60
2024-01-05T20:32:43.301Z,95.60
2024-01-05T20:35:15.639Z,95.50
2024-01-05T20:37:42.438Z,95.60
2024-01-05T20:40:09.745Z,95.60
2024-01-05T20:42:37.824Z,95.60
2024-01-05T20:45:07.033Z,95.60
2024-01-05T20:47:34.065Z,95.50
2024-01-05T20:50:01.163Z,95.50
2024-01-05T20:52:28.320Z,95.50
2024-01-05T20:54:55.190Z,95.50
2024-01-05T20:57:24.606Z,95.50
2024-01-05T20:59:51.856Z,95.90
2024-01-05T21:02:18.784Z,95.50
2024-01-05T21:04:51.828Z,95.40
2024-01-05T21:07:28.065Z,95.50
2024-01-05T21:09:55.133Z,95.40
2024-01-05T21:12:25.271Z,95.40
2024-01-05T21:14:52.208Z,95.40
2024-01-05T21:17:19.383Z,95.40
2024-01-05T21:19:48.911Z,95.50
2024-01-05T21:22:16.143Z,95.50
2024-01-05T21:24:44.412Z,95.50
2024-01-05T21:27:11.704Z,95.50
2024-01-05T21:29:45.878Z,95.50
2024-01-05T21:32:13.606Z,95.50
2024-01-05T21:34:41.669Z,95.50
2024-01-05T21:37:09.146Z,95.50
2024-01-05T21:39:37.301Z,95.50
2024-01-05T21:42:05.446Z,95.50
2024-01-05T21:44:32.764Z,95.50
2024-01-05T21:46:59.801Z,95.50
2024-01-05T21:49:26.759Z,95.50
2024-01-05T21:51:55.059Z,95.50
2024-01-05T21:54:21.943Z,95.50
2024-01-05T21:56:48.648Z,95.50
2024-01-05T21:59:15.604Z,95.50
2024-01-05T22:01:42.415Z,95.50
2024-01-05T22:04:10.285Z,95.40
2024-01-05T22:06:38.265Z,95.40
2024-01-05T22:09:05.724Z,95.40
2024-01-05T22:11:32.619Z,95.40
2024-01-05T22:13:59.604Z,95.40
2024-01-05T22:16:26.591Z,95.40
2024-01-05T22:18:53.534Z,95.40
2024-01-05T22:21:20.574Z,95.40
2024-01-05T22:23:47.927Z,95.40
2024-01-05T22:26:22.202Z,95.50
2024-01-05T22:28:49.418Z,95.50
2024-01-05T22:31:17.848Z,95.50
2024-01-05T22:33:45.232Z,95.50
2024-01-05T22:36:13.092Z,95.50
2024-01-05T22:38:40.087Z,95.50
2024-01-05T22:41:07.444Z,95.50
2024-01-05T22:43:34.731Z,95.50
2024-01-05T22:46:05.533Z,95.60
2024-01-05T22:48:35.996Z,95.50
2024-01-05T22:51:04.316Z,95.60
2024-01-05T22:53:31.656Z,95.50
2024-01-05T22:55:58.766Z,95.50
2024-01-05T22:58:25.947Z,95.50
2024-01-05T23:00:53.598Z,95.50
2024-01-05T23:03:20.968Z,95.50
2024-01-05T23:05:50.502Z,95.50
2024-01-05T23:08:21.876Z,95.50
2024-01-05T23:10:50.630Z,95.50
2024-01-05T23:13:17.625Z,95.40
2024-01-05T23:15:44.825Z,95.40
2024-01-05T23:18:11.967Z,95.40
2024-01-05T23:20:39.004Z,95.40
2024-01-05T23:23:05.853Z,95.30
2024-01-05T23:25:32.610Z,95.40
2024-01-05T23:27:59.315Z,95.30
2024-01-05T23:30:26.200Z,95.40
2024-01-05T23:32:53.060Z,95.40
2024-01-05T23:35:19.929Z,95.40
2024-01-05T23:37:46.695Z,95.40
2024-01-05T23:40:13.505Z,95.30
2024-01-05T23:42:40.170Z,95.30
2024-01-05T23:45:07.166Z,95.40
2024-01-05T23:47:33.963Z,95.40
2024-01-05T23:50:01.293Z,95.40
2024-01-05T23:52:28.146Z,95.30
2024-01-05T23:54:55.406Z,95.30
2024-01-05T23:57:22.194Z,95.30
2024-01-05T23:59:48.947Z,95.30
